sensor_id;sensor_type;location;lat;lon;timestamp;P1;durP1;ratioP1;P2;durP2;ratioP2
38911;SDS011;28444;48.056;14.408;2022-09-13T00:01:02;11.63;;;6.07;;
38911;SDS011;28444;48.056;14.408;2022-09-13T00:03:29;7.60;;;5.63;;
38911;SDS011;28444;48.056;14.408;2022-09-13T00:05:57;10.18;;;5.47;;
38911;SDS011;28444;48.056;14.408;2022-09-13T00:08:24;8.50;;;5.03;;
38911;SDS011;28444;48.056;14.408;2022-09-13T00:10:51;8.60;;;5.38;;
38911;SDS011;28444;48.056;14.408;2022-09-13T00:13:18;7.60;;;4.85;;
38911;SDS011;28444;48.056;14.408;2022-09-13T00:15:45;8.35;;;5.13;;
38911;SDS011;28444;48.056;14.408;2022-09-13T00:18:14;9.93;;;5.72;;
38911;SDS011;28444;48.056;14.408;2022-09-13T00:20:41;10.13;;;5.70;;
38911;SDS011;28444;48.056;14.408;2022-09-13T00:23:08;6.95;;;5.63;;
38911;SDS011;28444;48.056;14.408;2022-09-13T00:25:35;11.57;;;5.82;;
38911;SDS011;28444;48.056;14.408;2022-09-13T00:28:02;7.80;;;4.82;;
38911;SDS011;28444;48.056;14.408;2022-09-13T00:30:29;7.60;;;4.90;;
38911;SDS011;28444;48.056;14.408;2022-09-13T00:32:56;12.10;;;5.47;;
38911;SDS011;28444;48.056;14.408;2022-09-13T00:35:23;7.65;;;4.50;;
38911;SDS011;28444;48.056;14.408;2022-09-13T00:37:50;7.10;;;4.60;;
38911;SDS011;28444;48.056;14.408;2022-09-13T00:40:17;8.45;;;4.93;;
38911;SDS011;28444;48.056;14.408;2022-09-13T00:42:43;7.40;;;4.68;;
38911;SDS011;28444;48.056;14.408;2022-09-13T00:45:13;7.35;;;5.05;;
38911;SDS011;28444;48.056;14.408;2022-09-13T00:47:52;7.30;;;4.37;;
38911;SDS011;28444;48.056;14.408;2022-09-13T00:50:33;5.22;;;4.30;;
38911;SDS011;28444;48.056;14.408;2022-09-13T00:53:11;4.78;;;4.28;;
38911;SDS011;28444;48.056;14.408;2022-09-13T00:55:46;6.43;;;4.55;;
38911;SDS011;28444;48.056;14.408;2022-09-13T00:58:20;8.27;;;4.10;;
38911;SDS011;28444;48.056;14.408;2022-09-13T01:00:50;7.85;;;4.28;;
38911;SDS011;28444;48.056;14.408;2022-09-13T01:03:19;5.07;;;3.63;;
38911;SDS011;28444;48.056;14.408;2022-09-13T01:05:49;9.90;;;4.85;;
38911;SDS011;28444;48.056;14.408;2022-09-13T01:08:20;6.47;;;4.00;;
38911;SDS011;28444;48.056;14.408;2022-09-13T01:10:49;8.13;;;3.92;;
38911;SDS011;28444;48.056;14.408;2022-09-13T01:13:18;8.60;;;3.95;;
38911;SDS011;28444;48.056;14.408;2022-09-13T01:15:48;5.70;;;3.70;;
38911;SDS011;28444;48.056;14.408;2022-09-13T01:18:15;4.18;;;3.78;;
38911;SDS011;28444;48.056;14.408;2022-09-13T01:21:07;4.78;;;3.33;;
38911;SDS011;28444;48.056;14.408;2022-09-13T01:30:11;6.32;;;3.58;;
38911;SDS011;28444;48.056;14.408;2022-09-13T01:33:00;9.48;;;3.72;;
38911;SDS011;28444;48.056;14.408;2022-09-13T01:36:36;8.00;;;3.57;;
38911;SDS011;28444;48.056;14.408;2022-09-13T01:39:16;4.88;;;3.40;;
38911;SDS011;28444;48.056;14.408;2022-09-13T01:42:29;5.20;;;3.65;;
38911;SDS011;28444;48.056;14.408;2022-09-13T01:46:31;6.47;;;4.20;;
38911;SDS011;28444;48.056;14.408;2022-09-13T01:51:53;5.80;;;3.20;;
38911;SDS011;28444;48.056;14.408;2022-09-13T01:54:36;8.27;;;4.35;;
38911;SDS011;28444;48.056;14.408;2022-09-13T02:00:09;13.80;;;4.07;;
38911;SDS011;28444;48.056;14.408;2022-09-13T02:02:56;7.90;;;3.47;;
38911;SDS011;28444;48.056;14.408;2022-09-13T02:05:36;10.10;;;3.78;;
38911;SDS011;28444;48.056;14.408;2022-09-13T02:08:08;9.55;;;3.78;;
38911;SDS011;28444;48.056;14.408;2022-09-13T02:10:43;6.53;;;4.10;;
38911;SDS011;28444;48.056;14.408;2022-09-13T02:13:17;7.25;;;3.88;;
38911;SDS011;28444;48.056;14.408;2022-09-13T02:15:50;5.57;;;3.63;;
38911;SDS011;28444;48.056;14.408;2022-09-13T02:18:29;6.13;;;4.15;;
38911;SDS011;28444;48.056;14.408;2022-09-13T02:21:02;6.22;;;4.07;;
38911;SDS011;28444;48.056;14.408;2022-09-13T02:23:42;8.75;;;4.05;;
38911;SDS011;28444;48.056;14.408;2022-09-13T02:26:15;6.55;;;4.15;;
38911;SDS011;28444;48.056;14.408;2022-09-13T02:28:46;6.47;;;3.88;;
38911;SDS011;28444;48.056;14.408;2022-09-13T02:31:18;7.45;;;4.30;;
38911;SDS011;28444;48.056;14.408;2022-09-13T02:33:50;6.78;;;4.40;;
38911;SDS011;28444;48.056;14.408;2022-09-13T02:36:23;6.20;;;4.03;;
38911;SDS011;28444;48.056;14.408;2022-09-13T02:38:58;7.53;;;3.85;;
38911;SDS011;28444;48.056;14.408;2022-09-13T02:41:35;8.38;;;4.13;;
38911;SDS011;28444;48.056;14.408;2022-09-13T02:56:14;4.25;;;3.78;;
38911;SDS011;28444;48.056;14.408;2022-09-13T02:59:09;11.48;;;3.70;;
38911;SDS011;28444;48.056;14.408;2022-09-13T03:01:43;8.57;;;3.75;;
38911;SDS011;28444;48.056;14.408;2022-09-13T03:04:13;6.43;;;3.80;;
38911;SDS011;28444;48.056;14.408;2022-09-13T03:06:40;6.00;;;3.88;;
38911;SDS011;28444;48.056;14.408;2022-09-13T03:09:07;7.07;;;4.07;;
38911;SDS011;28444;48.056;14.408;2022-09-13T03:11:54;5.65;;;3.65;;
38911;SDS011;28444;48.056;14.408;2022-09-13T03:14:52;5.70;;;3.60;;
38911;SDS011;28444;48.056;14.408;2022-09-13T03:30:10;6.32;;;3.80;;
38911;SDS011;28444;48.056;14.408;2022-09-13T03:32:59;10.35;;;4.50;;
38911;SDS011;28444;48.056;14.408;2022-09-13T03:35:39;5.93;;;3.78;;
38911;SDS011;28444;48.056;14.408;2022-09-13T03:38:18;6.85;;;4.13;;
38911;SDS011;28444;48.056;14.408;2022-09-13T03:41:09;9.15;;;4.15;;
38911;SDS011;28444;48.056;14.408;2022-09-13T03:43:44;4.20;;;3.35;;
38911;SDS011;28444;48.056;14.408;2022-09-13T03:46:27;4.90;;;3.85;;
38911;SDS011;28444;48.056;14.408;2022-09-13T03:49:08;8.93;;;3.85;;
38911;SDS011;28444;48.056;14.408;2022-09-13T03:51:39;6.33;;;4.67;;
38911;SDS011;28444;48.056;14.408;2022-09-13T03:54:08;6.40;;;3.17;;
38911;SDS011;28444;48.056;14.408;2022-09-13T03:56:40;6.30;;;3.75;;
38911;SDS011;28444;48.056;14.408;2022-09-13T03:59:07;5.28;;;3.78;;
38911;SDS011;28444;48.056;14.408;2022-09-13T04:01:33;5.18;;;3.88;;
38911;SDS011;28444;48.056;14.408;2022-09-13T04:04:00;8.82;;;4.03;;
38911;SDS011;28444;48.056;14.408;2022-09-13T04:06:27;7.80;;;3.85;;
38911;SDS011;28444;48.056;14.408;2022-09-13T04:08:53;7.38;;;4.13;;
38911;SDS011;28444;48.056;14.408;2022-09-13T04:11:21;11.05;;;3.92;;
38911;SDS011;28444;48.056;14.408;2022-09-13T04:13:48;7.82;;;3.95;;
38911;SDS011;28444;48.056;14.408;2022-09-13T04:16:15;7.80;;;3.40;;
38911;SDS011;28444;48.056;14.408;2022-09-13T04:18:41;5.95;;;3.50;;
38911;SDS011;28444;48.056;14.408;2022-09-13T04:21:08;7.05;;;3.63;;
38911;SDS011;28444;48.056;14.408;2022-09-13T04:23:35;7.70;;;3.55;;
38911;SDS011;28444;48.056;14.408;2022-09-13T04:26:02;5.05;;;3.25;;
38911;SDS011;28444;48.056;14.408;2022-09-13T04:28:30;9.73;;;3.72;;
38911;SDS011;28444;48.056;14.408;2022-09-13T04:30:57;5.88;;;3.58;;
38911;SDS011;28444;48.056;14.408;2022-09-13T04:33:23;6.13;;;3.70;;
38911;SDS011;28444;48.056;14.408;2022-09-13T04:35:56;8.43;;;3.75;;
38911;SDS011;28444;48.056;14.408;2022-09-13T04:38:24;8.00;;;4.25;;
38911;SDS011;28444;48.056;14.408;2022-09-13T04:40:51;4.25;;;3.83;;
38911;SDS011;28444;48.056;14.408;2022-09-13T04:43:19;12.63;;;3.80;;
38911;SDS011;28444;48.056;14.408;2022-09-13T04:45:46;10.48;;;4.05;;
38911;SDS011;28444;48.056;14.408;2022-09-13T04:48:12;9.38;;;3.70;;
38911;SDS011;28444;48.056;14.408;2022-09-13T04:50:39;9.18;;;4.00;;
38911;SDS011;28444;48.056;14.408;2022-09-13T04:53:06;6.30;;;4.18;;
38911;SDS011;28444;48.056;14.408;2022-09-13T04:55:33;7.55;;;4.20;;
38911;SDS011;28444;48.056;14.408;2022-09-13T04:58:01;5.10;;;3.63;;
38911;SDS011;28444;48.056;14.408;2022-09-13T05:00:29;5.88;;;3.17;;
38911;SDS011;28444;48.056;14.408;2022-09-13T05:02:57;9.48;;;4.05;;
38911;SDS011;28444;48.056;14.408;2022-09-13T05:05:23;8.85;;;4.10;;
38911;SDS011;28444;48.056;14.408;2022-09-13T05:07:51;7.78;;;3.85;;
38911;SDS011;28444;48.056;14.408;2022-09-13T05:10:18;10.15;;;4.63;;
38911;SDS011;28444;48.056;14.408;2022-09-13T05:12:45;4.90;;;3.63;;
38911;SDS011;28444;48.056;14.408;2022-09-13T05:15:12;14.38;;;4.43;;
38911;SDS011;28444;48.056;14.408;2022-09-13T05:17:39;9.40;;;3.80;;
38911;SDS011;28444;48.056;14.408;2022-09-13T05:20:05;6.38;;;3.10;;
38911;SDS011;28444;48.056;14.408;2022-09-13T05:22:33;7.03;;;3.70;;
38911;SDS011;28444;48.056;14.408;2022-09-13T05:24:59;7.35;;;4.50;;
38911;SDS011;28444;48.056;14.408;2022-09-13T05:27:26;5.93;;;3.75;;
38911;SDS011;28444;48.056;14.408;2022-09-13T05:29:53;11.25;;;4.15;;
38911;SDS011;28444;48.056;14.408;2022-09-13T05:32:19;4.60;;;3.60;;
38911;SDS011;28444;48.056;14.408;2022-09-13T05:34:46;7.00;;;3.67;;
38911;SDS011;28444;48.056;14.408;2022-09-13T05:37:13;10.55;;;4.07;;
38911;SDS011;28444;48.056;14.408;2022-09-13T05:39:39;8.50;;;3.58;;
38911;SDS011;28444;48.056;14.408;2022-09-13T05:42:26;4.43;;;3.35;;
38911;SDS011;28444;48.056;14.408;2022-09-13T05:44:53;4.85;;;3.67;;
38911;SDS011;28444;48.056;14.408;2022-09-13T05:47:19;9.15;;;3.72;;
38911;SDS011;28444;48.056;14.408;2022-09-13T05:49:46;4.47;;;3.67;;
38911;SDS011;28444;48.056;14.408;2022-09-13T05:52:33;8.07;;;4.03;;
38911;SDS011;28444;48.056;14.408;2022-09-13T05:54:59;9.27;;;3.80;;
38911;SDS011;28444;48.056;14.408;2022-09-13T05:57:26;4.95;;;3.30;;
38911;SDS011;28444;48.056;14.408;2022-09-13T05:59:53;4.80;;;3.78;;
38911;SDS011;28444;48.056;14.408;2022-09-13T06:02:19;5.63;;;4.00;;
38911;SDS011;28444;48.056;14.408;2022-09-13T06:04:46;6.60;;;3.97;;
38911;SDS011;28444;48.056;14.408;2022-09-13T06:07:13;5.82;;;4.28;;
38911;SDS011;28444;48.056;14.408;2022-09-13T06:09:39;7.03;;;3.90;;
38911;SDS011;28444;48.056;14.408;2022-09-13T06:12:06;7.35;;;3.90;;
38911;SDS011;28444;48.056;14.408;2022-09-13T06:14:33;5.03;;;3.70;;
38911;SDS011;28444;48.056;14.408;2022-09-13T06:16:59;5.35;;;3.55;;
38911;SDS011;28444;48.056;14.408;2022-09-13T06:19:26;5.22;;;3.72;;
38911;SDS011;28444;48.056;14.408;2022-09-13T06:21:53;4.18;;;3.78;;
38911;SDS011;28444;48.056;14.408;2022-09-13T06:24:20;7.53;;;4.05;;
38911;SDS011;28444;48.056;14.408;2022-09-13T06:26:46;8.57;;;3.75;;
38911;SDS011;28444;48.056;14.408;2022-09-13T06:29:13;6.60;;;3.70;;
38911;SDS011;28444;48.056;14.408;2022-09-13T06:31:40;4.75;;;3.92;;
38911;SDS011;28444;48.056;14.408;2022-09-13T06:34:10;10.65;;;3.45;;
38911;SDS011;28444;48.056;14.408;2022-09-13T06:36:41;7.40;;;4.05;;
38911;SDS011;28444;48.056;14.408;2022-09-13T06:39:08;4.70;;;3.88;;
38911;SDS011;28444;48.056;14.408;2022-09-13T06:41:35;9.27;;;4.40;;
38911;SDS011;28444;48.056;14.408;2022-09-13T06:44:02;6.57;;;4.20;;
38911;SDS011;28444;48.056;14.408;2022-09-13T06:46:31;4.50;;;3.67;;
38911;SDS011;28444;48.056;14.408;2022-09-13T06:49:03;4.78;;;3.65;;
38911;SDS011;28444;48.056;14.408;2022-09-13T06:51:31;8.73;;;3.85;;
38911;SDS011;28444;48.056;14.408;2022-09-13T06:53:59;5.10;;;4.10;;
38911;SDS011;28444;48.056;14.408;2022-09-13T06:56:27;9.40;;;3.85;;
38911;SDS011;28444;48.056;14.408;2022-09-13T06:58:59;13.35;;;3.90;;
38911;SDS011;28444;48.056;14.408;2022-09-13T07:01:37;4.13;;;3.47;;
38911;SDS011;28444;48.056;14.408;2022-09-13T07:04:06;9.20;;;3.95;;
38911;SDS011;28444;48.056;14.408;2022-09-13T07:06:38;8.80;;;4.23;;
38911;SDS011;28444;48.056;14.408;2022-09-13T07:09:07;5.55;;;3.92;;
38911;SDS011;28444;48.056;14.408;2022-09-13T07:11:38;7.13;;;4.00;;
38911;SDS011;28444;48.056;14.408;2022-09-13T07:14:06;5.75;;;3.80;;
38911;SDS011;28444;48.056;14.408;2022-09-13T07:16:34;6.88;;;4.15;;
38911;SDS011;28444;48.056;14.408;2022-09-13T07:19:03;7.25;;;4.15;;
38911;SDS011;28444;48.056;14.408;2022-09-13T07:21:34;5.05;;;3.92;;
38911;SDS011;28444;48.056;14.408;2022-09-13T07:24:01;5.07;;;4.07;;
38911;SDS011;28444;48.056;14.408;2022-09-13T07:26:28;11.48;;;4.20;;
38911;SDS011;28444;48.056;14.408;2022-09-13T07:28:56;7.80;;;4.53;;
38911;SDS011;28444;48.056;14.408;2022-09-13T07:31:31;5.90;;;4.25;;
38911;SDS011;28444;48.056;14.408;2022-09-13T07:34:00;7.05;;;5.45;;
38911;SDS011;28444;48.056;14.408;2022-09-13T07:36:29;14.73;;;4.82;;
38911;SDS011;28444;48.056;14.408;2022-09-13T07:38:57;7.38;;;4.97;;
38911;SDS011;28444;48.056;14.408;2022-09-13T07:41:25;9.65;;;5.90;;
38911;SDS011;28444;48.056;14.408;2022-09-13T07:43:53;7.25;;;5.80;;
38911;SDS011;28444;48.056;14.408;2022-09-13T07:46:21;9.48;;;6.32;;
38911;SDS011;28444;48.056;14.408;2022-09-13T07:48:51;12.45;;;7.65;;
38911;SDS011;28444;48.056;14.408;2022-09-13T07:51:20;8.75;;;6.85;;
38911;SDS011;28444;48.056;14.408;2022-09-13T07:53:48;12.52;;;8.10;;
38911;SDS011;28444;48.056;14.408;2022-09-13T07:56:26;15.77;;;7.97;;
38911;SDS011;28444;48.056;14.408;2022-09-13T07:58:55;10.50;;;7.30;;
38911;SDS011;28444;48.056;14.408;2022-09-13T08:01:45;9.52;;;7.50;;
38911;SDS011;28444;48.056;14.408;2022-09-13T08:04:14;8.52;;;6.75;;
38911;SDS011;28444;48.056;14.408;2022-09-13T08:06:43;9.25;;;6.97;;
38911;SDS011;28444;48.056;14.408;2022-09-13T08:09:11;14.57;;;7.32;;
38911;SDS011;28444;48.056;14.408;2022-09-13T08:11:40;7.47;;;5.63;;
38911;SDS011;28444;48.056;14.408;2022-09-13T08:14:09;10.52;;;6.90;;
38911;SDS011;28444;48.056;14.408;2022-09-13T08:16:37;8.65;;;6.75;;
38911;SDS011;28444;48.056;14.408;2022-09-13T08:19:05;7.32;;;4.65;;
38911;SDS011;28444;48.056;14.408;2022-09-13T08:21:34;10.32;;;5.00;;
38911;SDS011;28444;48.056;14.408;2022-09-13T08:24:02;8.57;;;5.05;;
38911;SDS011;28444;48.056;14.408;2022-09-13T08:26:30;7.13;;;5.35;;
38911;SDS011;28444;48.056;14.408;2022-09-13T08:28:59;7.60;;;5.20;;
38911;SDS011;28444;48.056;14.408;2022-09-13T08:31:27;6.65;;;5.47;;
38911;SDS011;28444;48.056;14.408;2022-09-13T08:33:54;6.45;;;5.35;;
38911;SDS011;28444;48.056;14.408;2022-09-13T08:36:22;8.55;;;5.43;;
38911;SDS011;28444;48.056;14.408;2022-09-13T08:38:50;10.70;;;5.85;;
38911;SDS011;28444;48.056;14.408;2022-09-13T08:44:30;7.25;;;5.75;;
38911;SDS011;28444;48.056;14.408;2022-09-13T08:50:10;8.70;;;5.63;;
38911;SDS011;28444;48.056;14.408;2022-09-13T08:52:59;7.35;;;5.35;;
38911;SDS011;28444;48.056;14.408;2022-09-13T09:01:40;10.60;;;6.40;;
38911;SDS011;28444;48.056;14.408;2022-09-13T09:07:35;11.18;;;6.45;;
38911;SDS011;28444;48.056;14.408;2022-09-13T09:10:16;8.85;;;6.05;;
38911;SDS011;28444;48.056;14.408;2022-09-13T09:12:50;7.75;;;5.60;;
38911;SDS011;28444;48.056;14.408;2022-09-13T09:15:42;9.50;;;7.05;;
38911;SDS011;28444;48.056;14.408;2022-09-13T09:18:17;9.27;;;5.82;;
38911;SDS011;28444;48.056;14.408;2022-09-13T09:20:49;11.32;;;6.80;;
38911;SDS011;28444;48.056;14.408;2022-09-13T09:23:33;11.82;;;7.57;;
38911;SDS011;28444;48.056;14.408;2022-09-13T09:26:11;10.63;;;6.82;;
38911;SDS011;28444;48.056;14.408;2022-09-13T09:28:58;8.43;;;6.47;;
38911;SDS011;28444;48.056;14.408;2022-09-13T09:31:34;10.18;;;6.72;;
38911;SDS011;28444;48.056;14.408;2022-09-13T09:37:24;9.30;;;6.38;;
38911;SDS011;28444;48.056;14.408;2022-09-13T09:42:27;9.88;;;6.70;;
38911;SDS011;28444;48.056;14.408;2022-09-13T09:45:02;8.75;;;6.82;;
38911;SDS011;28444;48.056;14.408;2022-09-13T09:47:43;9.27;;;6.53;;
38911;SDS011;28444;48.056;14.408;2022-09-13T09:50:16;14.00;;;6.10;;
38911;SDS011;28444;48.056;14.408;2022-09-13T09:55:46;8.32;;;6.15;;
38911;SDS011;28444;48.056;14.408;2022-09-13T09:58:34;6.40;;;5.55;;
38911;SDS011;28444;48.056;14.408;2022-09-13T10:01:13;10.13;;;5.85;;
38911;SDS011;28444;48.056;14.408;2022-09-13T10:03:49;6.70;;;4.70;;
38911;SDS011;28444;48.056;14.408;2022-09-13T10:06:18;8.60;;;3.70;;
38911;SDS011;28444;48.056;14.408;2022-09-13T10:08:54;5.57;;;3.63;;
38911;SDS011;28444;48.056;14.408;2022-09-13T10:14:29;4.60;;;3.35;;
38911;SDS011;28444;48.056;14.408;2022-09-13T10:17:03;3.83;;;3.35;;
38911;SDS011;28444;48.056;14.408;2022-09-13T10:20:03;3.65;;;3.35;;
38911;SDS011;28444;48.056;14.408;2022-09-13T10:22:57;4.25;;;3.25;;
38911;SDS011;28444;48.056;14.408;2022-09-13T10:25:42;3.55;;;3.10;;
38911;SDS011;28444;48.056;14.408;2022-09-13T10:28:14;5.88;;;3.88;;
38911;SDS011;28444;48.056;14.408;2022-09-13T10:30:48;4.05;;;3.65;;
38911;SDS011;28444;48.056;14.408;2022-09-13T10:33:31;4.38;;;2.80;;
38911;SDS011;28444;48.056;14.408;2022-09-13T10:39:17;5.45;;;2.35;;
38911;SDS011;28444;48.056;14.408;2022-09-13T10:42:02;4.63;;;3.47;;
38911;SDS011;28444;48.056;14.408;2022-09-13T10:44:44;3.90;;;3.00;;
38911;SDS011;28444;48.056;14.408;2022-09-13T10:47:19;6.53;;;3.30;;
38911;SDS011;28444;48.056;14.408;2022-09-13T10:49:53;6.60;;;3.78;;
38911;SDS011;28444;48.056;14.408;2022-09-13T10:53:03;5.78;;;3.90;;
38911;SDS011;28444;48.056;14.408;2022-09-13T10:55:35;4.20;;;3.50;;
38911;SDS011;28444;48.056;14.408;2022-09-13T11:03:56;4.82;;;4.10;;
38911;SDS011;28444;48.056;14.408;2022-09-13T11:06:51;10.98;;;4.40;;
38911;SDS011;28444;48.056;14.408;2022-09-13T11:10:08;9.77;;;4.75;;
38911;SDS011;28444;48.056;14.408;2022-09-13T11:12:54;5.43;;;4.53;;
38911;SDS011;28444;48.056;14.408;2022-09-13T11:15:37;5.25;;;4.32;;
38911;SDS011;28444;48.056;14.408;2022-09-13T11:18:24;5.50;;;4.35;;
38911;SDS011;28444;48.056;14.408;2022-09-13T11:21:12;8.02;;;4.57;;
38911;SDS011;28444;48.056;14.408;2022-09-13T11:27:14;9.43;;;4.28;;
38911;SDS011;28444;48.056;14.408;2022-09-13T11:30:37;6.82;;;5.05;;
38911;SDS011;28444;48.056;14.408;2022-09-13T11:33:35;6.97;;;4.55;;
38911;SDS011;28444;48.056;14.408;2022-09-13T11:40:39;5.65;;;4.15;;
38911;SDS011;28444;48.056;14.408;2022-09-13T11:48:55;6.22;;;3.30;;
38911;SDS011;28444;48.056;14.408;2022-09-13T11:55:33;5.15;;;4.22;;
38911;SDS011;28444;48.056;14.408;2022-09-13T11:57:41;5.97;;;3.72;;
38911;SDS011;28444;48.056;14.408;2022-09-13T12:00:23;7.78;;;3.33;;
38911;SDS011;28444;48.056;14.408;2022-09-13T12:03:14;3.80;;;3.45;;
38911;SDS011;28444;48.056;14.408;2022-09-13T12:06:23;3.38;;;2.95;;
38911;SDS011;28444;48.056;14.408;2022-09-13T12:08:51;4.90;;;3.55;;
38911;SDS011;28444;48.056;14.408;2022-09-13T12:11:35;6.00;;;3.10;;
38911;SDS011;28444;48.056;14.408;2022-09-13T12:14:11;6.28;;;3.50;;
38911;SDS011;28444;48.056;14.408;2022-09-13T12:16:46;9.02;;;3.33;;
38911;SDS011;28444;48.056;14.408;2022-09-13T12:21:43;8.38;;;3.42;;
38911;SDS011;28444;48.056;14.408;2022-09-13T12:24:17;6.28;;;3.85;;
38911;SDS011;28444;48.056;14.408;2022-09-13T12:26:48;8.88;;;3.78;;
38911;SDS011;28444;48.056;14.408;2022-09-13T12:29:34;3.78;;;3.42;;
38911;SDS011;28444;48.056;14.408;2022-09-13T12:32:06;4.22;;;3.10;;
38911;SDS011;28444;48.056;14.408;2022-09-13T12:34:41;6.65;;;3.70;;
38911;SDS011;28444;48.056;14.408;2022-09-13T12:43:19;3.35;;;3.00;;
38911;SDS011;28444;48.056;14.408;2022-09-13T12:49:33;5.47;;;3.00;;
38911;SDS011;28444;48.056;14.408;2022-09-13T12:56:29;4.28;;;3.13;;
38911;SDS011;28444;48.056;14.408;2022-09-13T12:59:17;4.18;;;2.83;;
38911;SDS011;28444;48.056;14.408;2022-09-13T13:02:02;5.75;;;2.80;;
38911;SDS011;28444;48.056;14.408;2022-09-13T13:04:49;7.63;;;3.03;;
38911;SDS011;28444;48.056;14.408;2022-09-13T13:07:20;3.25;;;2.42;;
38911;SDS011;28444;48.056;14.408;2022-09-13T13:09:49;2.60;;;2.40;;
38911;SDS011;28444;48.056;14.408;2022-09-13T13:13:20;4.03;;;2.72;;
38911;SDS011;28444;48.056;14.408;2022-09-13T13:18:42;4.07;;;2.65;;
38911;SDS011;28444;48.056;14.408;2022-09-13T13:21:22;10.07;;;2.78;;
38911;SDS011;28444;48.056;14.408;2022-09-13T13:27:19;2.70;;;2.50;;
38911;SDS011;28444;48.056;14.408;2022-09-13T13:33:12;9.70;;;2.13;;
38911;SDS011;28444;48.056;14.408;2022-09-13T13:35:43;3.28;;;2.45;;
38911;SDS011;28444;48.056;14.408;2022-09-13T13:38:53;4.90;;;2.78;;
38911;SDS011;28444;48.056;14.408;2022-09-13T13:41:07;3.17;;;2.28;;
38911;SDS011;28444;48.056;14.408;2022-09-13T13:43:52;2.45;;;2.25;;
38911;SDS011;28444;48.056;14.408;2022-09-13T13:46:24;4.38;;;2.72;;
38911;SDS011;28444;48.056;14.408;2022-09-13T13:48:55;2.50;;;2.30;;
38911;SDS011;28444;48.056;14.408;2022-09-13T13:51:42;3.10;;;2.00;;
38911;SDS011;28444;48.056;14.408;2022-09-13T13:54:28;2.97;;;2.53;;
38911;SDS011;28444;48.056;14.408;2022-09-13T13:56:57;4.63;;;2.67;;
38911;SDS011;28444;48.056;14.408;2022-09-13T13:59:25;7.97;;;3.22;;
38911;SDS011;28444;48.056;14.408;2022-09-13T14:01:56;4.97;;;2.67;;
38911;SDS011;28444;48.056;14.408;2022-09-13T14:04:38;5.35;;;3.10;;
38911;SDS011;28444;48.056;14.408;2022-09-13T14:10:03;16.35;;;3.17;;
38911;SDS011;28444;48.056;14.408;2022-09-13T14:12:50;6.55;;;2.80;;
38911;SDS011;28444;48.056;14.408;2022-09-13T14:16:05;6.07;;;2.88;;
38911;SDS011;28444;48.056;14.408;2022-09-13T14:19:20;5.47;;;2.65;;
38911;SDS011;28444;48.056;14.408;2022-09-13T14:22:03;13.27;;;3.00;;
38911;SDS011;28444;48.056;14.408;2022-09-13T14:24:35;11.10;;;2.90;;
38911;SDS011;28444;48.056;14.408;2022-09-13T14:27:03;3.10;;;2.50;;
38911;SDS011;28444;48.056;14.408;2022-09-13T14:29:34;3.90;;;2.03;;
38911;SDS011;28444;48.056;14.408;2022-09-13T14:32:03;4.47;;;2.38;;
38911;SDS011;28444;48.056;14.408;2022-09-13T14:34:36;6.38;;;2.72;;
38911;SDS011;28444;48.056;14.408;2022-09-13T14:37:05;5.72;;;2.88;;
38911;SDS011;28444;48.056;14.408;2022-09-13T14:39:54;10.27;;;3.95;;
38911;SDS011;28444;48.056;14.408;2022-09-13T14:42:22;17.63;;;6.03;;
38911;SDS011;28444;48.056;14.408;2022-09-13T14:44:49;7.93;;;4.88;;
38911;SDS011;28444;48.056;14.408;2022-09-13T14:47:21;9.88;;;3.00;;
38911;SDS011;28444;48.056;14.408;2022-09-13T14:50:03;8.43;;;4.30;;
38911;SDS011;28444;48.056;14.408;2022-09-13T14:52:40;7.45;;;3.65;;
38911;SDS011;28444;48.056;14.408;2022-09-13T14:55:15;9.90;;;3.55;;
38911;SDS011;28444;48.056;14.408;2022-09-13T14:57:50;7.93;;;3.63;;
38911;SDS011;28444;48.056;14.408;2022-09-13T15:00:23;5.38;;;3.25;;
38911;SDS011;28444;48.056;14.408;2022-09-13T15:02:52;7.05;;;3.60;;
38911;SDS011;28444;48.056;14.408;2022-09-13T15:05:23;7.25;;;3.75;;
38911;SDS011;28444;48.056;14.408;2022-09-13T15:07:53;12.07;;;4.10;;
38911;SDS011;28444;48.056;14.408;2022-09-13T15:10:21;6.32;;;3.80;;
38911;SDS011;28444;48.056;14.408;2022-09-13T15:15:30;4.55;;;2.88;;
38911;SDS011;28444;48.056;14.408;2022-09-13T15:17:58;4.15;;;2.80;;
38911;SDS011;28444;48.056;14.408;2022-09-13T15:20:55;6.50;;;3.25;;
38911;SDS011;28444;48.056;14.408;2022-09-13T15:23:28;4.35;;;3.08;;
38911;SDS011;28444;48.056;14.408;2022-09-13T15:26:07;6.63;;;2.97;;
38911;SDS011;28444;48.056;14.408;2022-09-13T15:28:55;7.78;;;3.00;;
38911;SDS011;28444;48.056;14.408;2022-09-13T15:31:26;4.53;;;3.40;;
38911;SDS011;28444;48.056;14.408;2022-09-13T15:39:44;5.05;;;3.30;;
38911;SDS011;28444;48.056;14.408;2022-09-13T15:42:14;5.63;;;2.40;;
38911;SDS011;28444;48.056;14.408;2022-09-13T15:44:42;3.63;;;2.90;;
38911;SDS011;28444;48.056;14.408;2022-09-13T15:47:10;7.75;;;4.22;;
38911;SDS011;28444;48.056;14.408;2022-09-13T15:49:42;5.85;;;3.17;;
38911;SDS011;28444;48.056;14.408;2022-09-13T15:52:15;7.28;;;3.00;;
38911;SDS011;28444;48.056;14.408;2022-09-13T15:54:45;4.68;;;3.20;;
38911;SDS011;28444;48.056;14.408;2022-09-13T15:57:20;4.78;;;3.53;;
38911;SDS011;28444;48.056;14.408;2022-09-13T15:59:48;6.20;;;3.15;;
38911;SDS011;28444;48.056;14.408;2022-09-13T16:02:22;4.75;;;3.40;;
38911;SDS011;28444;48.056;14.408;2022-09-13T16:04:53;5.13;;;3.20;;
38911;SDS011;28444;48.056;14.408;2022-09-13T16:07:23;4.40;;;3.42;;
38911;SDS011;28444;48.056;14.408;2022-09-13T16:09:51;5.53;;;3.13;;
38911;SDS011;28444;48.056;14.408;2022-09-13T16:12:18;5.38;;;2.90;;
38911;SDS011;28444;48.056;14.408;2022-09-13T16:14:49;14.32;;;4.30;;
38911;SDS011;28444;48.056;14.408;2022-09-13T16:17:19;4.47;;;3.05;;
38911;SDS011;28444;48.056;14.408;2022-09-13T16:19:46;3.70;;;2.97;;
38911;SDS011;28444;48.056;14.408;2022-09-13T16:22:13;3.95;;;3.00;;
38911;SDS011;28444;48.056;14.408;2022-09-13T16:24:40;4.15;;;3.13;;
38911;SDS011;28444;48.056;14.408;2022-09-13T16:27:08;3.67;;;3.38;;
38911;SDS011;28444;48.056;14.408;2022-09-13T16:29:37;4.97;;;2.50;;
38911;SDS011;28444;48.056;14.408;2022-09-13T16:32:04;8.50;;;3.28;;
38911;SDS011;28444;48.056;14.408;2022-09-13T16:34:31;5.32;;;3.63;;
38911;SDS011;28444;48.056;14.408;2022-09-13T16:36:57;7.38;;;3.13;;
38911;SDS011;28444;48.056;14.408;2022-09-13T16:39:24;16.52;;;4.57;;
38911;SDS011;28444;48.056;14.408;2022-09-13T16:41:51;4.40;;;3.28;;
38911;SDS011;28444;48.056;14.408;2022-09-13T16:44:17;5.43;;;3.65;;
38911;SDS011;28444;48.056;14.408;2022-09-13T16:46:44;4.78;;;3.08;;
38911;SDS011;28444;48.056;14.408;2022-09-13T16:49:11;6.20;;;3.95;;
38911;SDS011;28444;48.056;14.408;2022-09-13T16:51:38;5.40;;;4.45;;
38911;SDS011;28444;48.056;14.408;2022-09-13T16:54:04;7.93;;;4.13;;
38911;SDS011;28444;48.056;14.408;2022-09-13T16:56:31;6.75;;;3.35;;
38911;SDS011;28444;48.056;14.408;2022-09-13T16:58:58;5.75;;;3.50;;
38911;SDS011;28444;48.056;14.408;2022-09-13T17:01:25;3.58;;;3.22;;
38911;SDS011;28444;48.056;14.408;2022-09-13T17:03:54;9.20;;;4.40;;
38911;SDS011;28444;48.056;14.408;2022-09-13T17:06:22;7.10;;;3.58;;
38911;SDS011;28444;48.056;14.408;2022-09-13T17:08:51;6.00;;;4.10;;
38911;SDS011;28444;48.056;14.408;2022-09-13T17:13:50;9.32;;;4.63;;
38911;SDS011;28444;48.056;14.408;2022-09-13T17:16:18;5.78;;;3.97;;
38911;SDS011;28444;48.056;14.408;2022-09-13T17:18:48;8.70;;;3.65;;
38911;SDS011;28444;48.056;14.408;2022-09-13T17:21:15;7.30;;;4.20;;
38911;SDS011;28444;48.056;14.408;2022-09-13T17:23:42;9.57;;;3.55;;